createdAt,value
2019-05-26T00:00:56.683Z,82.53
2019-05-26T00:03:29.295Z,112.05
2019-05-26T00:06:01.435Z,94.64
2019-05-26T00:08:36.648Z,111.52
2019-05-26T00:11:09.330Z,88.20
2019-05-26T01:09:38.561Z,249.70
2019-05-26T01:19:47.371Z,158.52
2019-05-26T01:22:20.343Z,105.60
2019-05-26T01:24:52.886Z,156.15
2019-05-26T01:27:25.358Z,259.92
2019-05-26T01:29:58.351Z,203.68
2019-05-26T01:32:30.335Z,242.10
2019-05-26T01:35:08.281Z,156.72
2019-05-26T01:37:42.449Z,154.63
2019-05-26T01:47:58.401Z,136.30
2019-05-26T01:50:30.779Z,215.85
2019-05-26T01:53:03.338Z,178.78
2019-05-26T02:03:12.711Z,161.23
2019-05-26T02:05:45.338Z,110.03
2019-05-26T02:08:38.009Z,161.57
2019-05-26T02:10:59.838Z,178.80
2019-05-26T02:21:16.297Z,152.38
2019-05-26T02:23:50.655Z,210.28
2019-05-26T02:57:10.055Z,132.30
2019-05-26T02:59:44.287Z,114.90
2019-05-26T03:02:18.655Z,84.95
2019-05-26T03:04:55.413Z,194.35
2019-05-26T03:07:29.632Z,103.64
2019-05-26T03:10:06.324Z,199.17
2019-05-26T03:12:45.706Z,135.87
2019-05-26T03:15:18.251Z,98.90
2019-05-26T03:17:52.051Z,154.32
2019-05-26T03:20:25.071Z,188.60
2019-05-26T03:23:05.287Z,216.06
2019-05-26T03:25:46.645Z,237.80
2019-05-26T03:28:22.105Z,141.60
2019-05-26T03:30:55.239Z,177.87
2019-05-26T03:33:32.680Z,135.42
2019-05-26T03:36:04.813Z,128.05
2019-05-26T03:38:37.310Z,116.45
2019-05-26T03:41:12.745Z,234.75
2019-05-26T03:43:45.323Z,199.87
2019-05-26T03:46:24.607Z,224.85
2019-05-26T03:48:57.278Z,157.60
2019-05-26T03:51:30.294Z,215.07
2019-05-26T03:54:02.627Z,233.78
2019-05-26T03:56:35.305Z,66.97
2019-05-26T03:59:07.857Z,163.75
2019-05-26T04:01:40.287Z,196.37
2019-05-26T04:04:16.780Z,90.07
2019-05-26T04:06:55.028Z,115.57
2019-05-26T04:09:30.784Z,123.00
2019-05-26T04:12:03.556Z,88.87
2019-05-26T04:14:37.615Z,118.87
2019-05-26T04:17:10.301Z,134.55
2019-05-26T04:19:42.815Z,88.75
2019-05-26T04:22:15.507Z,130.10
2019-05-26T04:24:49.574Z,127.55
2019-05-26T04:27:24.838Z,63.38
2019-05-26T04:29:57.598Z,60.60
2019-05-26T04:32:30.288Z,104.85
2019-05-26T04:35:04.282Z,70.25
2019-05-26T04:37:36.667Z,76.95
2019-05-26T04:40:25.673Z,72.75
2019-05-26T04:42:48.323Z,92.27
2019-05-26T04:45:21.805Z,69.75
2019-05-26T04:47:54.324Z,68.57
2019-05-26T04:50:27.359Z,62.27
2019-05-26T04:53:06.676Z,79.17
2019-05-26T04:55:34.134Z,125.10
2019-05-26T04:58:07.331Z,80.80
2019-05-26T05:00:39.728Z,64.85
2019-05-26T05:03:12.230Z,117.67
2019-05-26T05:05:44.780Z,119.35
2019-05-26T05:08:17.349Z,116.27
2019-05-26T05:31:02.549Z,40.80
2019-05-26T05:33:36.297Z,31.93
2019-05-26T05:36:08.755Z,28.35
2019-05-26T05:38:41.478Z,28.65
2019-05-26T05:41:13.864Z,27.60
2019-05-26T05:43:46.307Z,25.40
2019-05-26T05:46:18.767Z,24.90
2019-05-26T05:48:51.284Z,28.70
2019-05-26T05:51:24.640Z,19.60
2019-05-26T05:53:57.320Z,22.73
2019-05-26T05:56:30.300Z,19.35
2019-05-26T05:59:02.721Z,20.88
2019-05-26T06:01:35.611Z,16.70
2019-05-26T06:04:08.326Z,18.20
2019-05-26T06:06:41.286Z,16.62
2019-05-26T06:09:13.805Z,17.33
2019-05-26T06:11:46.298Z,19.37
2019-05-26T06:14:18.919Z,17.02
2019-05-26T06:16:51.464Z,15.38
2019-05-26T06:19:23.872Z,14.15
2019-05-26T06:21:56.364Z,13.13
2019-05-26T06:24:30.271Z,13.43
2019-05-26T06:27:02.578Z,14.38
2019-05-26T06:29:35.319Z,15.58
2019-05-26T06:32:08.248Z,13.88
2019-05-26T06:34:41.303Z,11.95
2019-05-26T06:37:13.343Z,13.60
2019-05-26T06:39:45.615Z,12.00
2019-05-26T06:42:18.284Z,12.95
2019-05-26T06:44:53.846Z,16.00
2019-05-26T06:47:25.254Z,11.35
2019-05-26T06:49:57.586Z,12.05
2019-05-26T06:52:30.617Z,11.90
2019-05-26T06:55:03.296Z,11.22
2019-05-26T06:57:35.790Z,10.90
2019-05-26T07:00:15.071Z,10.85
2019-05-26T07:02:47.747Z,8.65
2019-05-26T07:05:20.310Z,9.45
2019-05-26T07:07:52.248Z,9.08
2019-05-26T07:10:25.262Z,9.75
2019-05-26T07:12:57.567Z,9.35
2019-05-26T07:15:30.662Z,9.50
2019-05-26T07:18:03.297Z,9.28
2019-05-26T07:20:38.444Z,8.85
2019-05-26T07:23:11.099Z,10.93
2019-05-26T07:25:43.934Z,8.60
2019-05-26T07:28:16.386Z,10.05
2019-05-26T07:30:48.333Z,7.80
2019-05-26T07:33:21.562Z,8.03
2019-05-26T07:35:53.546Z,9.58
2019-05-26T07:38:26.293Z,7.10
2019-05-26T07:41:01.141Z,7.68
2019-05-26T07:43:35.015Z,10.08
2019-05-26T07:46:09.299Z,7.78
2019-05-26T07:48:41.790Z,7.75
2019-05-26T07:51:14.296Z,8.17
2019-05-26T07:53:46.694Z,8.88
2019-05-26T08:01:42.288Z,9.30
2019-05-26T08:04:14.835Z,9.40
2019-05-26T08:09:18.719Z,8.98
2019-05-26T08:11:51.351Z,8.10
2019-05-26T08:14:23.710Z,8.90
2019-05-26T08:16:56.383Z,8.63
2019-05-26T08:19:31.380Z,8.48
2019-05-26T08:22:03.974Z,7.15
2019-05-26T08:24:36.444Z,8.95
2019-05-26T08:27:09.258Z,9.10
2019-05-26T08:29:41.612Z,9.15
2019-05-26T08:32:15.321Z,6.83
2019-05-26T08:34:47.755Z,10.48
2019-05-26T08:37:20.291Z,8.03
2019-05-26T08:39:52.729Z,8.13
2019-05-26T08:42:31.921Z,7.05
2019-05-26T08:44:59.345Z,8.50
2019-05-26T08:47:31.718Z,8.35
2019-05-26T08:50:05.599Z,9.45
2019-05-26T08:52:38.296Z,6.42
2019-05-26T08:55:13.290Z,16.20
2019-05-26T08:57:49.442Z,12.60
2019-05-26T09:00:22.292Z,10.38
2019-05-26T09:02:54.389Z,7.33
2019-05-26T09:05:28.549Z,5.97
2019-05-26T09:13:19.326Z,6.35
2019-05-26T09:15:51.735Z,8.28
2019-05-26T09:18:24.313Z,8.15
2019-05-26T09:20:56.835Z,7.58
2019-05-26T09:23:29.414Z,6.97
2019-05-26T09:26:02.297Z,12.00
2019-05-26T09:28:35.790Z,7.62
2019-05-26T09:31:09.293Z,9.15
2019-05-26T09:33:41.622Z,6.33
2019-05-26T09:36:14.308Z,8.10
2019-05-26T09:38:46.790Z,9.88
2019-05-26T09:41:19.288Z,7.35
2019-05-26T09:43:51.679Z,7.35
2019-05-26T09:46:24.433Z,12.20
2019-05-26T09:51:28.596Z,10.18
2019-05-26T09:54:02.422Z,5.48
2019-05-26T09:56:35.294Z,7.05
2019-05-26T09:59:07.794Z,6.70
2019-05-26T10:01:40.292Z,6.72
2019-05-26T10:04:12.605Z,8.03
2019-05-26T10:06:45.282Z,6.40
2019-05-26T10:09:20.453Z,6.15
2019-05-26T10:11:52.982Z,9.15
2019-05-26T10:14:25.566Z,8.60
2019-05-26T10:16:58.015Z,5.05
2019-05-26T10:19:32.299Z,8.62
2019-05-26T10:22:06.297Z,8.15
2019-05-26T10:24:38.816Z,7.47
2019-05-26T10:27:11.319Z,6.63
2019-05-26T10:29:50.467Z,6.25
2019-05-26T10:32:23.042Z,4.50
2019-05-26T10:34:55.650Z,4.95
2019-05-26T10:37:29.354Z,8.65
2019-05-26T10:40:02.368Z,6.67
2019-05-26T10:45:44.290Z,6.03
2019-05-26T10:48:19.439Z,4.03
2019-05-26T10:50:52.763Z,7.53
2019-05-26T10:53:26.284Z,4.25
2019-05-26T10:55:58.685Z,9.95
2019-05-26T10:58:32.892Z,6.28
2019-05-26T11:01:05.484Z,4.90
2019-05-26T11:03:39.462Z,5.85
2019-05-26T11:06:11.987Z,7.40
2019-05-26T11:08:45.297Z,7.87
2019-05-26T11:11:17.748Z,6.95
2019-05-26T11:14:02.539Z,6.20
2019-05-26T11:16:24.479Z,5.70
2019-05-26T11:18:56.774Z,16.48
2019-05-26T11:21:29.316Z,5.60
2019-05-26T11:24:02.827Z,4.94
2019-05-26T11:26:35.484Z,4.45
2019-05-26T11:29:08.286Z,3.98
2019-05-26T11:31:40.768Z,2.20
2019-05-26T11:34:13.329Z,2.65
2019-05-26T11:36:45.673Z,4.53
2019-05-26T11:39:18.317Z,2.47
2019-05-26T11:41:54.945Z,2.67
2019-05-26T11:44:25.381Z,4.53
2019-05-26T11:46:58.276Z,3.15
2019-05-26T11:49:30.584Z,2.92
2019-05-26T11:52:03.289Z,3.08
2019-05-26T11:54:35.728Z,6.33
2019-05-26T11:57:11.374Z,4.00
2019-05-26T11:59:47.141Z,3.22
2019-05-26T12:04:49.713Z,2.98
2019-05-26T12:09:53.795Z,3.83
2019-05-26T12:12:26.502Z,2.75
2019-05-26T12:14:58.866Z,3.20
2019-05-26T12:19:30.290Z,5.03
2019-05-26T12:22:03.303Z,3.50
2019-05-26T12:24:35.672Z,6.33
2019-05-26T12:27:08.327Z,3.54
2019-05-26T12:29:40.649Z,7.30
2019-05-26T12:32:14.161Z,6.55
2019-05-26T12:34:46.542Z,4.60
2019-05-26T12:37:22.625Z,9.18
2019-05-26T12:39:55.420Z,11.88
2019-05-26T12:42:28.308Z,4.97
2019-05-26T12:45:01.257Z,40.88
2019-05-26T12:47:33.939Z,55.90
2019-05-26T12:50:11.302Z,8.03
2019-05-26T12:52:43.984Z,13.80
2019-05-26T12:55:16.723Z,3.00
2019-05-26T12:57:51.845Z,2.60
2019-05-26T13:00:26.265Z,3.07
2019-05-26T13:02:58.770Z,6.80
2019-05-26T13:05:31.439Z,2.40
2019-05-26T13:08:03.958Z,2.77
2019-05-26T13:10:36.373Z,2.80
2019-05-26T13:13:08.886Z,1.60
2019-05-26T13:15:59.570Z,1.10
2019-05-26T13:18:33.643Z,2.58
2019-05-26T13:21:06.295Z,3.17
2019-05-26T13:23:38.732Z,3.30
2019-05-26T13:26:11.379Z,3.02
2019-05-26T13:28:45.392Z,3.37
2019-05-26T13:31:17.699Z,2.57
2019-05-26T13:33:50.158Z,2.10
2019-05-26T13:36:22.742Z,2.87
2019-05-26T13:38:55.327Z,2.87
2019-05-26T13:41:27.894Z,2.73
2019-05-26T13:44:00.325Z,4.00
2019-05-26T13:46:33.440Z,2.30
2019-05-26T13:49:05.554Z,2.00
2019-05-26T13:51:38.322Z,1.18
2019-05-26T13:56:21.355Z,2.00
2019-05-26T14:02:01.340Z,2.05
2019-05-26T14:07:06.295Z,6.10
2019-05-26T14:12:12.320Z,2.52
2019-05-26T14:14:46.573Z,3.20
2019-05-26T14:17:20.030Z,2.30
2019-05-26T14:22:25.760Z,2.67
2019-05-26T14:27:29.738Z,1.65
2019-05-26T14:30:02.298Z,0.90
2019-05-26T14:32:34.859Z,2.42
2019-05-26T14:35:09.435Z,1.92
2019-05-26T14:37:41.889Z,1.95
2019-05-26T14:40:15.785Z,1.17
2019-05-26T14:42:48.376Z,4.05
2019-05-26T14:45:21.005Z,1.75
2019-05-26T14:47:53.529Z,1.65
2019-05-26T14:50:26.529Z,3.70
2019-05-26T14:53:00.425Z,2.15
2019-05-26T14:55:34.857Z,3.22
2019-05-26T14:58:15.782Z,1.42
2019-05-26T15:00:42.610Z,2.47
2019-05-26T15:06:05.861Z,1.60
2019-05-26T15:08:37.285Z,0.70
2019-05-26T15:11:09.823Z,0.60
2019-05-26T15:13:45.287Z,1.10
2019-05-26T15:16:39.923Z,3.10
2019-05-26T15:19:13.455Z,1.00
2019-05-26T15:21:46.039Z,2.72
2019-05-26T15:24:20.292Z,0.80
2019-05-26T15:26:53.861Z,3.17
2019-05-26T15:29:26.340Z,1.17
2019-05-26T15:31:58.734Z,0.62
2019-05-26T15:34:38.475Z,1.52
2019-05-26T15:37:10.806Z,1.40
2019-05-26T15:39:43.400Z,1.15
2019-05-26T15:42:15.830Z,0.80
2019-05-26T15:44:48.383Z,2.00
2019-05-26T15:47:21.444Z,1.10
2019-05-26T15:49:53.979Z,3.65
2019-05-26T15:52:26.408Z,1.12
2019-05-26T15:54:58.933Z,3.17
2019-05-26T16:00:31.692Z,1.62
2019-05-26T16:03:04.644Z,5.20
2019-05-26T16:05:37.047Z,1.50
2019-05-26T16:08:09.626Z,1.70
2019-05-26T16:10:42.442Z,3.77
2019-05-26T16:13:15.080Z,1.80
2019-05-26T16:18:54.318Z,0.93
2019-05-26T16:21:28.356Z,1.60
2019-05-26T16:24:01.409Z,3.45
2019-05-26T16:29:07.582Z,2.30
2019-05-26T16:31:39.965Z,4.30
2019-05-26T16:34:12.656Z,1.47
2019-05-26T16:36:45.306Z,2.40
2019-05-26T16:41:49.702Z,2.05
2019-05-26T16:44:22.301Z,1.77
2019-05-26T16:46:57.102Z,2.52
2019-05-26T16:49:30.172Z,2.98
2019-05-26T16:52:02.711Z,1.20
2019-05-26T16:54:36.755Z,3.65
2019-05-26T16:57:09.444Z,3.85
2019-05-26T16:59:42.436Z,3.87
2019-05-26T17:02:15.315Z,3.45
2019-05-26T17:04:47.924Z,4.17
2019-05-26T17:07:21.666Z,7.47
2019-05-26T17:09:54.307Z,2.65
2019-05-26T17:12:27.011Z,31.50
2019-05-26T17:14:59.631Z,37.17
2019-05-26T17:17:32.311Z,22.48
2019-05-26T17:20:08.452Z,10.18
2019-05-26T17:22:41.314Z,12.10
2019-05-26T17:25:14.318Z,11.53
2019-05-26T17:27:46.866Z,1.87
2019-05-26T17:30:22.223Z,2.22
2019-05-26T17:32:55.054Z,3.05
2019-05-26T17:35:27.708Z,2.08
2019-05-26T17:38:00.596Z,2.80
2019-05-26T17:40:33.373Z,1.85
2019-05-26T17:43:05.907Z,4.55
2019-05-26T17:45:38.643Z,3.02
2019-05-26T17:48:11.294Z,2.50
2019-05-26T17:50:43.833Z,1.17
2019-05-26T17:55:49.009Z,3.20
2019-05-26T18:00:56.075Z,1.25
2019-05-26T18:04:55.061Z,3.22
2019-05-26T18:07:27.718Z,2.02
2019-05-26T18:10:00.564Z,2.25
2019-05-26T18:12:33.322Z,2.65
2019-05-26T18:15:11.297Z,3.52
2019-05-26T18:17:47.532Z,3.15
2019-05-26T18:20:19.420Z,2.17
2019-05-26T18:22:52.366Z,2.33
2019-05-26T18:25:24.879Z,2.30
2019-05-26T18:28:02.814Z,1.95
2019-05-26T18:30:37.474Z,1.98
2019-05-26T18:33:10.410Z,2.90
2019-05-26T18:35:43.314Z,2.30
2019-05-26T18:38:15.927Z,2.83
2019-05-26T18:40:48.432Z,1.63
2019-05-26T18:43:21.033Z,1.95
2019-05-26T18:45:55.060Z,3.50
2019-05-26T18:48:28.563Z,3.20
2019-05-26T18:51:01.462Z,2.37
2019-05-26T18:53:34.322Z,3.87
2019-05-26T18:56:07.735Z,1.70
2019-05-26T18:58:40.646Z,4.42
2019-05-26T19:01:13.303Z,2.27
2019-05-26T19:03:45.923Z,1.90
2019-05-26T19:06:18.506Z,2.25
2019-05-26T19:08:51.312Z,2.15
2019-05-26T19:11:24.023Z,2.30
2019-05-26T19:13:56.739Z,3.47
2019-05-26T19:16:29.415Z,3.20
2019-05-26T19:19:02.810Z,2.35
2019-05-26T19:21:35.467Z,2.22
2019-05-26T19:24:09.501Z,3.65
2019-05-26T19:26:42.520Z,3.94
2019-05-26T19:29:15.315Z,2.98
2019-05-26T19:31:48.036Z,3.42
2019-05-26T19:34:20.638Z,3.17
2019-05-26T19:36:53.294Z,3.20
2019-05-26T19:39:25.877Z,2.83
2019-05-26T19:41:58.449Z,2.33
2019-05-26T19:44:31.340Z,4.40
2019-05-26T19:47:04.114Z,3.80
2019-05-26T19:49:37.742Z,5.56
2019-05-26T19:52:10.356Z,2.08
2019-05-26T19:54:42.791Z,4.74
2019-05-26T19:57:15.628Z,3.52
2019-05-26T19:59:48.306Z,2.98
2019-05-26T20:02:21.312Z,3.53
2019-05-26T20:04:54.310Z,5.70
2019-05-26T20:07:26.991Z,3.27
2019-05-26T20:09:59.575Z,3.15
2019-05-26T20:12:32.821Z,2.50
2019-05-26T20:15:09.403Z,2.85
2019-05-26T20:17:42.053Z,4.20
2019-05-26T20:20:15.315Z,3.17
2019-05-26T20:25:20.313Z,2.17
2019-05-26T20:27:54.548Z,2.50
2019-05-26T20:30:26.845Z,2.37
2019-05-26T20:32:59.415Z,3.85
2019-05-26T20:35:32.455Z,3.15
2019-05-26T20:38:05.298Z,4.83
2019-05-26T20:43:11.315Z,2.92
2019-05-26T20:45:45.051Z,8.48
2019-05-26T20:48:18.053Z,3.70
2019-05-26T20:50:50.869Z,3.25
2019-05-26T20:55:55.536Z,3.05
2019-05-26T20:58:28.400Z,4.08
2019-05-26T21:01:03.639Z,3.92
2019-05-26T21:03:36.346Z,3.47
2019-05-26T21:06:08.909Z,2.50
2019-05-26T21:08:41.549Z,4.97
2019-05-26T21:11:14.068Z,3.60
2019-05-26T21:13:46.694Z,2.77
2019-05-26T21:16:19.326Z,2.62
2019-05-26T21:18:51.894Z,6.17
2019-05-26T21:21:24.494Z,3.40
2019-05-26T21:23:58.612Z,3.02
2019-05-26T21:26:31.329Z,3.45
2019-05-26T21:29:05.319Z,4.55
2019-05-26T21:31:39.348Z,2.92
2019-05-26T21:34:11.712Z,10.25
2019-05-26T21:36:44.311Z,3.62
2019-05-26T21:39:16.634Z,4.20
2019-05-26T21:41:49.296Z,4.17
2019-05-26T21:44:21.619Z,6.20
2019-05-26T21:46:54.271Z,2.98
2019-05-26T21:49:26.795Z,3.77
2019-05-26T21:51:59.310Z,5.55
2019-05-26T21:54:31.771Z,4.33
2019-05-26T21:57:04.539Z,4.53
2019-05-26T21:59:38.677Z,5.68
2019-05-26T22:02:11.445Z,4.12
2019-05-26T22:04:43.764Z,3.50
2019-05-26T22:07:19.642Z,4.20
2019-05-26T22:09:52.306Z,3.98
2019-05-26T22:12:24.984Z,3.00
2019-05-26T22:14:57.545Z,4.60
2019-05-26T22:17:30.313Z,3.55
2019-05-26T22:20:07.319Z,5.42
2019-05-26T22:22:39.831Z,3.67
2019-05-26T22:25:12.514Z,3.35
2019-05-26T22:27:44.909Z,3.75
2019-05-26T22:30:19.329Z,4.08
2019-05-26T22:32:53.791Z,4.63
2019-05-26T22:35:26.498Z,3.87
2019-05-26T22:37:58.908Z,6.33
2019-05-26T22:40:31.725Z,8.00
2019-05-26T22:43:04.306Z,4.47
2019-05-26T22:45:38.245Z,3.67
2019-05-26T22:48:10.535Z,4.65
2019-05-26T22:50:44.291Z,3.33
2019-05-26T22:53:16.646Z,3.65
2019-05-26T22:55:49.286Z,3.05
2019-05-26T22:58:21.792Z,7.65
2019-05-26T23:00:54.305Z,3.90
2019-05-26T23:03:27.704Z,4.37
2019-05-26T23:06:01.308Z,3.20
2019-05-26T23:08:33.694Z,3.67
2019-05-26T23:11:08.914Z,3.37
2019-05-26T23:16:12.743Z,5.92
2019-05-26T23:21:16.671Z,4.40
2019-05-26T23:23:50.312Z,12.28
2019-05-26T23:26:23.054Z,6.45
2019-05-26T23:31:27.278Z,4.85
2019-05-26T23:39:02.880Z,4.70
2019-05-26T23:41:35.587Z,3.50
2019-05-26T23:44:09.323Z,5.58
2019-05-26T23:46:41.915Z,7.50
2019-05-26T23:49:14.351Z,4.12
2019-05-26T23:51:46.880Z,5.00
2019-05-26T23:54:19.298Z,4.03
2019-05-26T23:56:51.690Z,4.05
2019-05-26T23:59:28.046Z,7.55
